createdAt,value
2023-05-25T00:01:49.146Z,56.78
2023-05-25T00:04:17.126Z,56.90
2023-05-25T00:06:45.536Z,57.00
2023-05-25T00:09:13.123Z,56.91
2023-05-25T00:11:40.490Z,56.98
2023-05-25T00:14:08.578Z,56.97
2023-05-25T00:16:37.615Z,56.53
2023-05-25T00:19:05.710Z,56.61
2023-05-25T00:21:38.265Z,56.86
2023-05-25T00:24:06.518Z,57.54
2023-05-25T00:26:35.021Z,58.49
2023-05-25T00:29:03.562Z,58.56
2023-05-25T00:31:33.122Z,58.38
2023-05-25T00:34:00.625Z,58.84
2023-05-25T00:36:27.922Z,58.47
2023-05-25T00:38:55.363Z,58.22
2023-05-25T00:41:23.033Z,58.02
2023-05-25T00:43:50.418Z,59.17
2023-05-25T00:46:17.756Z,59.01
2023-05-25T00:48:46.323Z,59.63
2023-05-25T00:51:14.552Z,59.44
2023-05-25T00:53:42.504Z,60.78
2023-05-25T00:56:23.147Z,61.40
2023-05-25T00:58:54.648Z,61.07
2023-05-25T01:01:22.851Z,61.04
2023-05-25T01:03:54.558Z,61.45
2023-05-25T01:06:23.289Z,61.82
2023-05-25T01:08:54.136Z,62.61
2023-05-25T01:11:26.685Z,61.29
2023-05-25T01:13:54.564Z,61.62
2023-05-25T01:16:22.510Z,62.35
2023-05-25T01:18:52.616Z,62.45
2023-05-25T01:21:20.494Z,64.08
2023-05-25T01:23:58.851Z,65.15
2023-05-25T01:26:27.584Z,64.71
2023-05-25T01:28:56.111Z,65.29
2023-05-25T01:31:24.067Z,66.53
2023-05-25T01:33:52.145Z,66.68
2023-05-25T01:36:20.104Z,66.66
2023-05-25T01:38:47.525Z,66.58
2023-05-25T01:41:15.160Z,66.85
2023-05-25T01:43:42.857Z,67.36
2023-05-25T01:46:37.187Z,67.53
2023-05-25T01:49:19.926Z,67.59
2023-05-25T01:52:08.443Z,67.50
2023-05-25T01:54:51.735Z,67.77
2023-05-25T01:57:20.952Z,67.59
2023-05-25T01:59:48.598Z,67.57
2023-05-25T02:02:18.237Z,67.92
2023-05-25T02:04:46.200Z,68.17
2023-05-25T02:07:13.674Z,67.79
2023-05-25T02:09:41.029Z,67.46
2023-05-25T02:12:08.500Z,67.94
2023-05-25T02:14:35.850Z,67.62
2023-05-25T02:17:03.892Z,67.88
2023-05-25T02:19:31.337Z,67.38
2023-05-25T02:21:58.735Z,67.45
2023-05-25T02:24:26.550Z,67.70
2023-05-25T02:26:54.139Z,68.50
2023-05-25T02:29:21.482Z,69.12
2023-05-25T02:31:48.826Z,68.86
2023-05-25T02:34:16.616Z,69.47
2023-05-25T02:36:44.992Z,69.28
2023-05-25T02:39:12.385Z,69.77
2023-05-25T02:41:39.797Z,69.29
2023-05-25T02:44:08.015Z,68.05
2023-05-25T02:46:35.729Z,68.27
2023-05-25T02:49:03.361Z,67.30
2023-05-25T02:51:30.873Z,66.73
2023-05-25T02:54:00.013Z,66.66
2023-05-25T02:56:27.635Z,67.23
2023-05-25T02:58:57.121Z,68.03
2023-05-25T03:01:31.134Z,69.56
2023-05-25T03:03:58.957Z,69.85
2023-05-25T03:06:27.441Z,68.90
2023-05-25T03:08:58.225Z,68.68
2023-05-25T03:11:25.549Z,69.20
2023-05-25T03:13:53.158Z,68.89
2023-05-25T03:16:23.404Z,68.98
2023-05-25T03:18:51.018Z,68.69
2023-05-25T03:21:18.652Z,68.48
2023-05-25T03:23:46.316Z,68.94
2023-05-25T03:26:13.726Z,68.99
2023-05-25T03:28:42.053Z,68.95
2023-05-25T03:31:09.434Z,69.34
2023-05-25T03:33:36.668Z,69.85
2023-05-25T03:36:11.013Z,69.00
2023-05-25T03:38:38.450Z,69.33
2023-05-25T03:41:05.888Z,69.37
2023-05-25T03:43:33.366Z,68.98
2023-05-25T03:46:00.831Z,69.58
2023-05-25T03:48:28.293Z,69.45
2023-05-25T03:50:55.628Z,69.83
2023-05-25T03:53:23.168Z,69.83
2023-05-25T03:55:52.355Z,70.84
2023-05-25T03:58:20.023Z,70.74
2023-05-25T04:00:49.777Z,70.90
2023-05-25T04:03:17.360Z,70.42
2023-05-25T04:05:45.932Z,71.27
2023-05-25T04:08:18.092Z,71.19
2023-05-25T04:10:46.208Z,71.33
2023-05-25T04:13:13.583Z,72.18
2023-05-25T04:15:40.915Z,71.55
2023-05-25T04:18:20.801Z,71.67
2023-05-25T04:20:49.428Z,71.78
2023-05-25T04:23:19.630Z,71.47
2023-05-25T04:25:47.407Z,71.54
2023-05-25T04:28:15.459Z,71.76
2023-05-25T04:30:58.939Z,72.66
2023-05-25T04:33:39.690Z,71.80
2023-05-25T04:36:20.059Z,71.24
2023-05-25T04:38:48.064Z,70.72
2023-05-25T04:41:15.662Z,70.53
2023-05-25T04:44:04.582Z,70.60
2023-05-25T04:46:37.191Z,70.11
2023-05-25T04:49:05.764Z,70.46
2023-05-25T04:51:33.503Z,71.04
2023-05-25T04:54:00.990Z,71.25
2023-05-25T04:56:28.656Z,71.05
2023-05-25T04:58:55.912Z,69.99
2023-05-25T05:01:24.240Z,70.07
2023-05-25T05:03:53.457Z,70.72
2023-05-25T05:06:21.722Z,70.82
2023-05-25T05:08:49.268Z,70.82
2023-05-25T05:11:16.632Z,71.29
2023-05-25T05:13:44.963Z,71.13
2023-05-25T05:16:12.421Z,71.51
2023-05-25T05:18:40.329Z,71.70
2023-05-25T05:21:07.711Z,71.26
2023-05-25T05:23:36.460Z,70.71
2023-05-25T05:26:05.101Z,69.92
2023-05-25T05:28:36.083Z,70.72
2023-05-25T05:31:04.363Z,69.35
2023-05-25T05:33:31.862Z,68.69
2023-05-25T05:36:02.624Z,70.02
2023-05-25T05:38:30.516Z,69.90
2023-05-25T05:40:58.561Z,68.99
2023-05-25T05:43:26.117Z,69.84
2023-05-25T05:45:53.760Z,69.20
2023-05-25T05:48:21.222Z,68.96
2023-05-25T05:50:48.609Z,68.75
2023-05-25T05:53:16.215Z,68.42
2023-05-25T05:55:44.205Z,68.72
2023-05-25T05:58:11.736Z,70.16
2023-05-25T06:00:39.323Z,69.85
2023-05-25T06:03:08.119Z,69.92
2023-05-25T06:05:35.568Z,69.05
2023-05-25T06:08:05.136Z,68.49
2023-05-25T06:10:35.191Z,68.61
2023-05-25T06:13:03.135Z,69.09
2023-05-25T06:15:30.531Z,68.39
2023-05-25T06:18:00.297Z,67.24
2023-05-25T06:20:27.931Z,68.26
2023-05-25T06:22:55.461Z,67.55
2023-05-25T06:25:22.817Z,67.58
2023-05-25T06:27:50.985Z,67.00
2023-05-25T06:30:18.383Z,66.18
2023-05-25T06:32:45.997Z,67.10
2023-05-25T06:35:19.667Z,65.29
2023-05-25T06:37:49.540Z,64.84
2023-05-25T06:40:19.445Z,65.06
2023-05-25T06:42:46.765Z,63.61
2023-05-25T06:45:33.066Z,63.02
2023-05-25T06:48:00.945Z,63.18
2023-05-25T06:50:28.400Z,62.50
2023-05-25T06:52:56.162Z,62.52
2023-05-25T06:55:24.040Z,61.49
2023-05-25T06:57:51.281Z,61.37
2023-05-25T07:00:19.794Z,61.88
2023-05-25T07:02:47.105Z,60.53
2023-05-25T07:05:14.673Z,60.50
2023-05-25T07:07:42.196Z,59.69
2023-05-25T07:10:09.752Z,59.15
2023-05-25T07:12:37.128Z,58.75
2023-05-25T07:15:05.549Z,58.70
2023-05-25T07:17:32.837Z,58.74
2023-05-25T07:20:00.284Z,58.11
2023-05-25T07:22:27.660Z,57.25
2023-05-25T07:24:55.069Z,57.46
2023-05-25T07:27:22.447Z,56.47
2023-05-25T07:29:49.725Z,55.22
2023-05-25T07:32:17.056Z,53.60
2023-05-25T07:34:44.533Z,52.34
2023-05-25T07:37:11.899Z,52.39
2023-05-25T07:39:40.541Z,52.59
2023-05-25T07:42:07.931Z,51.31
2023-05-25T07:44:35.674Z,50.83
2023-05-25T07:47:03.335Z,49.94
2023-05-25T07:49:30.843Z,49.45
2023-05-25T07:51:58.169Z,49.81
2023-05-25T07:54:25.725Z,49.13
2023-05-25T07:56:54.050Z,49.31
2023-05-25T07:59:21.303Z,49.40
2023-05-25T08:01:48.821Z,48.60
2023-05-25T08:04:16.298Z,48.37
2023-05-25T08:06:44.320Z,49.45
2023-05-25T08:09:13.274Z,49.41
2023-05-25T08:11:40.610Z,49.02
2023-05-25T08:14:07.893Z,49.44
2023-05-25T08:16:35.215Z,47.70
2023-05-25T08:19:02.856Z,48.27
2023-05-25T08:21:31.003Z,48.21
2023-05-25T08:23:59.230Z,48.21
2023-05-25T08:26:41.388Z,47.68
2023-05-25T08:29:13.978Z,46.92
2023-05-25T08:31:47.417Z,46.18
2023-05-25T08:34:14.694Z,46.04
2023-05-25T08:36:42.086Z,46.32
2023-05-25T08:39:10.351Z,46.18
2023-05-25T08:41:43.332Z,46.42
2023-05-25T08:44:11.526Z,46.16
2023-05-25T08:46:39.079Z,46.05
2023-05-25T08:49:13.485Z,46.76
2023-05-25T08:51:54.602Z,46.46
2023-05-25T08:54:29.808Z,46.47
2023-05-25T08:57:05.274Z,45.11
2023-05-25T08:59:47.770Z,44.59
2023-05-25T09:02:24.017Z,45.17
2023-05-25T09:04:51.434Z,44.54
2023-05-25T09:07:19.179Z,43.88
2023-05-25T09:09:47.979Z,43.65
2023-05-25T09:12:16.244Z,44.84
2023-05-25T09:14:48.290Z,45.27
2023-05-25T09:17:16.878Z,44.91
2023-05-25T09:19:44.692Z,44.39
2023-05-25T09:22:16.382Z,43.96
2023-05-25T09:24:45.295Z,43.48
2023-05-25T09:27:17.602Z,42.49
2023-05-25T09:29:51.441Z,41.27
2023-05-25T09:32:19.457Z,41.67
2023-05-25T09:34:47.437Z,41.50
2023-05-25T09:37:16.772Z,43.02
2023-05-25T09:39:45.078Z,42.23
2023-05-25T09:42:12.595Z,41.81
2023-05-25T09:44:40.585Z,41.89
2023-05-25T09:47:08.160Z,41.34
2023-05-25T09:49:35.836Z,41.34
2023-05-25T09:52:03.109Z,40.63
2023-05-25T09:54:30.443Z,40.03
2023-05-25T09:56:57.885Z,40.17
2023-05-25T09:59:25.615Z,41.13
2023-05-25T10:01:56.475Z,41.92
2023-05-25T10:04:23.874Z,42.69
2023-05-25T10:06:51.820Z,42.21
2023-05-25T10:09:20.444Z,42.65
2023-05-25T10:11:48.427Z,42.52
2023-05-25T10:14:21.774Z,42.28
2023-05-25T10:16:52.025Z,42.80
2023-05-25T10:19:21.940Z,42.56
2023-05-25T10:22:01.035Z,42.24
2023-05-25T10:24:35.422Z,41.79
2023-05-25T10:27:14.593Z,41.44
2023-05-25T10:29:49.652Z,40.57
2023-05-25T10:32:17.695Z,40.58
2023-05-25T10:34:46.111Z,40.74
2023-05-25T10:37:14.581Z,41.16
2023-05-25T10:39:43.918Z,41.31
2023-05-25T10:42:13.141Z,41.06
2023-05-25T10:44:42.277Z,41.04
2023-05-25T10:47:09.836Z,40.55
2023-05-25T10:49:53.625Z,40.05
2023-05-25T10:52:21.091Z,39.86
2023-05-25T10:54:48.942Z,40.08
2023-05-25T10:57:21.736Z,39.92
2023-05-25T10:59:50.901Z,40.36
2023-05-25T11:02:23.475Z,40.20
2023-05-25T11:04:51.190Z,40.36
2023-05-25T11:07:19.412Z,40.46
2023-05-25T11:09:58.455Z,39.80
2023-05-25T11:12:26.894Z,39.95
2023-05-25T11:15:16.538Z,39.77
2023-05-25T11:17:47.937Z,39.87
2023-05-25T11:20:22.989Z,39.49
2023-05-25T11:22:52.565Z,38.27
2023-05-25T11:25:36.775Z,38.22
2023-05-25T11:28:05.791Z,38.38
2023-05-25T11:30:33.608Z,39.13
2023-05-25T11:33:04.546Z,39.36
2023-05-25T11:35:37.195Z,39.25
2023-05-25T11:38:07.912Z,39.12
2023-05-25T11:40:47.789Z,38.70
2023-05-25T11:43:15.888Z,39.11
2023-05-25T11:45:44.586Z,37.92
2023-05-25T11:48:16.206Z,38.41
2023-05-25T11:50:43.920Z,38.26
2023-05-25T11:53:11.401Z,37.88
2023-05-25T11:55:41.073Z,38.12
2023-05-25T11:58:08.508Z,38.82
2023-05-25T12:00:35.805Z,38.82
2023-05-25T12:03:03.298Z,37.66
2023-05-25T12:05:38.339Z,38.33
2023-05-25T12:08:05.649Z,38.43
2023-05-25T12:10:32.946Z,39.40
2023-05-25T12:13:02.155Z,39.14
2023-05-25T12:15:30.412Z,38.70
2023-05-25T12:17:57.781Z,37.63
2023-05-25T12:20:25.927Z,37.76
2023-05-25T12:22:53.587Z,38.45
2023-05-25T12:25:22.014Z,38.93
2023-05-25T12:27:49.818Z,38.58
2023-05-25T12:30:17.335Z,38.55
2023-05-25T12:33:03.740Z,38.93
2023-05-25T12:35:50.289Z,38.10
2023-05-25T12:38:21.560Z,38.31
2023-05-25T12:41:04.776Z,38.45
2023-05-25T12:43:43.132Z,38.32
2023-05-25T12:46:10.690Z,38.53
2023-05-25T12:48:38.110Z,37.48
2023-05-25T12:51:05.758Z,38.12
2023-05-25T12:53:47.164Z,38.75
2023-05-25T12:56:14.521Z,38.63
2023-05-25T12:58:41.759Z,37.90
2023-05-25T13:01:09.427Z,37.69
2023-05-25T13:03:36.817Z,37.47
2023-05-25T13:06:04.790Z,37.10
2023-05-25T13:08:32.103Z,36.25
2023-05-25T13:11:00.124Z,36.45
2023-05-25T13:13:27.538Z,35.96
2023-05-25T13:15:54.857Z,36.22
2023-05-25T13:18:22.425Z,36.32
2023-05-25T13:20:51.248Z,35.90
2023-05-25T13:23:20.887Z,36.56
2023-05-25T13:25:48.112Z,36.79
2023-05-25T13:28:15.481Z,37.03
2023-05-25T13:30:43.083Z,36.88
2023-05-25T13:33:10.966Z,36.45
2023-05-25T13:35:45.637Z,36.13
2023-05-25T13:38:14.473Z,36.48
2023-05-25T13:40:43.299Z,35.84
2023-05-25T13:43:10.955Z,36.22
2023-05-25T13:45:38.434Z,38.08
2023-05-25T13:48:05.974Z,38.32
2023-05-25T13:50:33.482Z,38.91
2023-05-25T13:53:00.886Z,37.70
2023-05-25T13:55:28.370Z,37.23
2023-05-25T13:57:56.039Z,36.97
2023-05-25T14:00:23.497Z,37.06
2023-05-25T14:02:50.955Z,37.74
2023-05-25T14:05:19.924Z,37.23
2023-05-25T14:07:47.507Z,37.51
2023-05-25T14:10:15.035Z,39.07
2023-05-25T14:12:42.425Z,38.99
2023-05-25T14:15:10.325Z,39.02
2023-05-25T14:17:37.883Z,38.51
2023-05-25T14:20:06.410Z,37.27
2023-05-25T14:22:34.108Z,37.39
2023-05-25T14:25:01.424Z,38.05
2023-05-25T14:27:29.044Z,37.84
2023-05-25T14:29:56.365Z,37.99
2023-05-25T14:32:23.888Z,37.91
2023-05-25T14:34:51.372Z,38.26
2023-05-25T14:37:18.824Z,38.19
2023-05-25T14:39:46.079Z,38.60
2023-05-25T14:42:13.540Z,38.20
2023-05-25T14:44:40.745Z,38.33
2023-05-25T14:47:08.626Z,38.43
2023-05-25T14:49:36.103Z,38.14
2023-05-25T14:52:03.589Z,37.76
2023-05-25T14:54:30.988Z,38.40
2023-05-25T14:56:58.375Z,38.64
2023-05-25T14:59:25.623Z,38.57
2023-05-25T15:01:53.074Z,38.80
2023-05-25T15:04:20.836Z,39.24
2023-05-25T15:06:48.327Z,38.71
2023-05-25T15:09:16.923Z,39.01
2023-05-25T15:11:44.381Z,39.16
2023-05-25T15:14:11.733Z,38.48
2023-05-25T15:16:39.172Z,39.18
2023-05-25T15:19:07.284Z,39.17
2023-05-25T15:21:37.012Z,38.89
2023-05-25T15:24:04.339Z,38.14
2023-05-25T15:26:31.652Z,38.31
2023-05-25T15:28:59.022Z,38.25
2023-05-25T15:31:26.919Z,38.12
2023-05-25T15:33:58.598Z,38.74
2023-05-25T15:36:26.798Z,38.69
2023-05-25T15:38:54.100Z,38.78
2023-05-25T15:41:21.874Z,39.23
2023-05-25T15:43:57.959Z,38.93
2023-05-25T15:46:25.853Z,38.83
2023-05-25T15:48:53.936Z,38.92
2023-05-25T15:51:21.899Z,38.91
2023-05-25T15:53:49.314Z,38.84
2023-05-25T15:56:16.737Z,39.17
2023-05-25T15:58:47.152Z,38.94
2023-05-25T16:01:14.542Z,39.20
2023-05-25T16:03:43.245Z,39.54
2023-05-25T16:06:11.235Z,39.20
2023-05-25T16:08:38.618Z,39.45
2023-05-25T16:11:06.295Z,39.72
2023-05-25T16:13:33.622Z,39.56
2023-05-25T16:16:00.979Z,39.12
2023-05-25T16:18:28.336Z,38.92
2023-05-25T16:20:58.550Z,38.79
2023-05-25T16:23:25.911Z,38.72
2023-05-25T16:25:53.285Z,39.22
2023-05-25T16:28:20.900Z,39.11
2023-05-25T16:30:48.285Z,39.66
2023-05-25T16:33:15.767Z,39.29
2023-05-25T16:35:43.551Z,39.60
2023-05-25T16:38:11.010Z,39.79
2023-05-25T16:40:38.340Z,39.50
2023-05-25T16:43:05.705Z,39.16
2023-05-25T16:45:33.019Z,39.66
2023-05-25T16:48:00.550Z,39.31
2023-05-25T16:50:27.872Z,39.64
2023-05-25T16:52:55.950Z,39.13
2023-05-25T16:55:23.801Z,39.07
2023-05-25T16:57:51.101Z,39.77
2023-05-25T17:00:18.654Z,39.71
2023-05-25T17:02:45.972Z,39.70
2023-05-25T17:05:13.469Z,39.22
2023-05-25T17:07:41.080Z,39.40
2023-05-25T17:10:09.004Z,40.34
2023-05-25T17:12:36.461Z,40.68
2023-05-25T17:15:03.992Z,41.30
2023-05-25T17:17:31.334Z,41.25
2023-05-25T17:19:58.934Z,41.07
2023-05-25T17:22:26.240Z,41.15
2023-05-25T17:24:53.638Z,41.01
2023-05-25T17:27:20.978Z,41.03
2023-05-25T17:29:48.283Z,41.22
2023-05-25T17:32:15.695Z,40.97
2023-05-25T17:34:42.998Z,40.76
2023-05-25T17:37:10.345Z,40.69
2023-05-25T17:39:37.862Z,40.92
2023-05-25T17:42:06.714Z,40.63
2023-05-25T17:44:34.004Z,40.69
2023-05-25T17:47:01.297Z,40.37
2023-05-25T17:49:28.530Z,40.88
2023-05-25T17:51:55.881Z,41.53
2023-05-25T17:54:25.819Z,41.43
2023-05-25T17:56:54.071Z,41.04
2023-05-25T17:59:21.400Z,41.26
2023-05-25T18:01:48.780Z,41.26
2023-05-25T18:04:16.115Z,41.78
2023-05-25T18:06:43.569Z,41.89
2023-05-25T18:09:10.864Z,42.00
2023-05-25T18:11:38.283Z,42.36
2023-05-25T18:14:05.752Z,42.43
2023-05-25T18:16:33.503Z,42.43
2023-05-25T18:19:00.899Z,42.49
2023-05-25T18:21:28.297Z,42.34
2023-05-25T18:23:55.790Z,42.30
2023-05-25T18:26:23.609Z,42.97
2023-05-25T18:28:50.967Z,42.94
2023-05-25T18:31:18.278Z,42.85
2023-05-25T18:33:45.745Z,43.10
2023-05-25T18:36:13.133Z,43.27
2023-05-25T18:38:40.711Z,42.56
2023-05-25T18:41:08.098Z,42.52
2023-05-25T18:43:35.652Z,43.06
2023-05-25T18:46:03.165Z,43.47
2023-05-25T18:48:30.696Z,43.50
2023-05-25T18:50:58.655Z,43.66
2023-05-25T18:53:26.291Z,44.15
2023-05-25T18:55:53.726Z,44.42
2023-05-25T18:58:21.267Z,44.46
2023-05-25T19:00:48.625Z,45.41
2023-05-25T19:03:16.205Z,46.88
2023-05-25T19:05:43.928Z,47.95
2023-05-25T19:08:11.329Z,47.57
2023-05-25T19:10:38.656Z,47.74
2023-05-25T19:13:06.061Z,47.62
2023-05-25T19:15:33.394Z,48.05
2023-05-25T19:18:03.518Z,47.79
2023-05-25T19:20:32.784Z,48.28
2023-05-25T19:23:00.160Z,47.58
2023-05-25T19:25:27.603Z,48.18
2023-05-25T19:27:54.958Z,48.20
2023-05-25T19:30:22.231Z,47.84
2023-05-25T19:32:49.539Z,48.08
2023-05-25T19:35:17.123Z,48.17
2023-05-25T19:37:44.495Z,48.78
2023-05-25T19:40:13.253Z,48.31
2023-05-25T19:42:46.001Z,48.36
2023-05-25T19:45:13.407Z,48.70
2023-05-25T19:47:40.810Z,48.67
2023-05-25T19:50:08.728Z,48.65
2023-05-25T19:52:37.913Z,48.78
2023-05-25T19:55:06.106Z,48.65
2023-05-25T19:57:33.407Z,48.31
2023-05-25T20:00:00.920Z,49.38
2023-05-25T20:02:28.437Z,49.64
2023-05-25T20:04:55.831Z,48.95
2023-05-25T20:07:23.897Z,48.51
2023-05-25T20:09:51.175Z,49.17
2023-05-25T20:12:18.576Z,49.37
2023-05-25T20:14:45.865Z,49.42
2023-05-25T20:17:13.329Z,49.37
2023-05-25T20:19:40.681Z,50.05
2023-05-25T20:22:08.368Z,49.91
2023-05-25T20:24:35.869Z,50.51
2023-05-25T20:27:06.828Z,50.17
2023-05-25T20:29:34.299Z,51.29
2023-05-25T20:32:02.216Z,51.88
2023-05-25T20:34:29.634Z,52.16
2023-05-25T20:36:57.044Z,52.15
2023-05-25T20:39:24.536Z,52.27
2023-05-25T20:41:51.988Z,51.34
2023-05-25T20:44:19.591Z,52.03
2023-05-25T20:46:46.868Z,52.49
2023-05-25T20:49:14.267Z,53.06
2023-05-25T20:51:44.515Z,53.57
2023-05-25T20:54:11.633Z,54.30
2023-05-25T20:56:38.980Z,54.58
2023-05-25T20:59:06.282Z,54.97
2023-05-25T21:01:34.548Z,55.46
2023-05-25T21:04:02.270Z,55.72
2023-05-25T21:06:32.866Z,55.61
2023-05-25T21:09:02.590Z,55.74
2023-05-25T21:11:29.987Z,55.84
2023-05-25T21:13:57.320Z,55.85
2023-05-25T21:16:24.787Z,55.68
2023-05-25T21:18:52.171Z,55.17
2023-05-25T21:21:19.538Z,55.81
2023-05-25T21:23:46.909Z,56.08
2023-05-25T21:26:14.372Z,56.37
2023-05-25T21:28:41.754Z,56.40
2023-05-25T21:31:09.229Z,56.96
2023-05-25T21:33:37.833Z,56.90
2023-05-25T21:36:05.326Z,56.54
2023-05-25T21:38:32.678Z,57.16
2023-05-25T21:41:00.067Z,56.81
2023-05-25T21:43:27.563Z,57.32
2023-05-25T21:45:54.848Z,57.25
2023-05-25T21:48:22.376Z,57.69
2023-05-25T21:50:53.552Z,57.48
2023-05-25T21:53:21.408Z,58.24
2023-05-25T21:55:49.098Z,57.62
2023-05-25T21:58:17.782Z,57.70
2023-05-25T22:00:45.504Z,57.83
2023-05-25T22:03:13.159Z,57.79
2023-05-25T22:05:40.626Z,57.55
2023-05-25T22:08:08.771Z,58.91
2023-05-25T22:10:37.132Z,58.61
2023-05-25T22:13:05.189Z,58.19
2023-05-25T22:15:32.522Z,58.23
2023-05-25T22:18:00.411Z,58.76
2023-05-25T22:20:27.947Z,59.12
2023-05-25T22:22:56.398Z,59.77
2023-05-25T22:25:25.242Z,59.43
2023-05-25T22:27:52.469Z,59.89
2023-05-25T22:30:19.868Z,60.10
2023-05-25T22:32:47.280Z,60.31
2023-05-25T22:35:14.651Z,59.88
2023-05-25T22:37:42.056Z,59.83
2023-05-25T22:40:09.903Z,59.80
2023-05-25T22:42:37.200Z,59.52
2023-05-25T22:45:04.876Z,59.57
2023-05-25T22:47:32.263Z,59.37
2023-05-25T22:49:59.605Z,59.38
2023-05-25T22:52:27.231Z,60.33
2023-05-25T22:54:54.591Z,59.54
2023-05-25T22:57:21.823Z,58.98
2023-05-25T22:59:49.162Z,59.83
2023-05-25T23:02:16.527Z,59.53
2023-05-25T23:04:43.948Z,59.74
2023-05-25T23:07:11.272Z,60.08
2023-05-25T23:09:38.689Z,60.02
2023-05-25T23:12:06.446Z,60.03
2023-05-25T23:14:35.804Z,59.92
2023-05-25T23:17:03.274Z,59.70
2023-05-25T23:19:30.553Z,59.77
2023-05-25T23:21:58.650Z,59.12
2023-05-25T23:24:25.878Z,59.60
2023-05-25T23:26:53.196Z,59.86
2023-05-25T23:29:20.488Z,59.66
2023-05-25T23:31:47.866Z,59.43
2023-05-25T23:34:15.711Z,59.95
2023-05-25T23:36:45.014Z,60.01
2023-05-25T23:39:13.048Z,60.11
2023-05-25T23:41:40.765Z,60.47
2023-05-25T23:44:08.112Z,61.03
2023-05-25T23:46:35.511Z,61.03
2023-05-25T23:49:02.928Z,61.40
2023-05-25T23:51:31.834Z,60.95
2023-05-25T23:53:59.142Z,60.80
2023-05-25T23:56:27.866Z,60.27
2023-05-25T23:58:56.905Z,61.21
